sensor_id;sensor_type;location;lat;lon;timestamp;pressure;altitude;pressure_sealevel;temperature;humidity
83183;BME280;73077;49.898;16.450;2023-11-18T00:01:32;97358.19;;;22.02;47.84
83183;BME280;73077;49.898;16.450;2023-11-18T00:03:59;97364.28;;;22.02;47.85
83183;BME280;73077;49.898;16.450;2023-11-18T00:06:26;97347.81;;;22.00;47.85
83183;BME280;73077;49.898;16.450;2023-11-18T00:08:52;97356.91;;;21.98;47.81
83183;BME280;73077;49.898;16.450;2023-11-18T00:11:17;97365.81;;;21.97;47.97
83183;BME280;73077;49.898;16.450;2023-11-18T00:13:44;97345.94;;;21.94;47.87
83183;BME280;73077;49.898;16.450;2023-11-18T00:16:12;97356.47;;;21.94;47.75
83183;BME280;73077;49.898;16.450;2023-11-18T00:18:42;97347.91;;;21.92;47.76
83183;BME280;73077;49.898;16.450;2023-11-18T00:21:08;97355.16;;;21.90;47.72
83183;BME280;73077;49.898;16.450;2023-11-18T00:23:34;97355.38;;;21.89;47.78
83183;BME280;73077;49.898;16.450;2023-11-18T00:26:00;97362.06;;;21.91;47.91
83183;BME280;73077;49.898;16.450;2023-11-18T00:28:27;97359.59;;;21.90;47.70
83183;BME280;73077;49.898;16.450;2023-11-18T00:30:53;97358.31;;;21.86;47.77
83183;BME280;73077;49.898;16.450;2023-11-18T00:33:18;97363.75;;;21.84;47.81
83183;BME280;73077;49.898;16.450;2023-11-18T00:35:44;97368.38;;;21.82;47.82
83183;BME280;73077;49.898;16.450;2023-11-18T00:38:11;97365.75;;;21.82;47.88
83183;BME280;73077;49.898;16.450;2023-11-18T00:40:37;97366.72;;;21.81;47.39
83183;BME280;73077;49.898;16.450;2023-11-18T00:43:03;97371.34;;;21.79;47.81
83183;BME280;73077;49.898;16.450;2023-11-18T00:45:30;97359.84;;;21.80;47.80
83183;BME280;73077;49.898;16.450;2023-11-18T00:47:57;97360.34;;;21.76;47.71
83183;BME280;73077;49.898;16.450;2023-11-18T00:50:24;97371.06;;;21.74;47.60
83183;BME280;73077;49.898;16.450;2023-11-18T00:52:49;97366.81;;;21.73;47.51
83183;BME280;73077;49.898;16.450;2023-11-18T00:55:15;97365.97;;;21.73;47.65
83183;BME280;73077;49.898;16.450;2023-11-18T00:57:46;97376.69;;;21.71;47.64
83183;BME280;73077;49.898;16.450;2023-11-18T01:00:14;97380.16;;;21.72;47.57
83183;BME280;73077;49.898;16.450;2023-11-18T01:02:43;97377.88;;;21.68;47.44
83183;BME280;73077;49.898;16.450;2023-11-18T01:05:10;97376.84;;;21.69;47.71
83183;BME280;73077;49.898;16.450;2023-11-18T01:07:37;97388.84;;;21.72;47.45
83183;BME280;73077;49.898;16.450;2023-11-18T01:10:05;97390.34;;;21.66;47.53
83183;BME280;73077;49.898;16.450;2023-11-18T01:12:31;97395.00;;;21.64;47.79
83183;BME280;73077;49.898;16.450;2023-11-18T01:14:57;97395.00;;;21.64;47.67
83183;BME280;73077;49.898;16.450;2023-11-18T01:17:23;97398.44;;;21.65;47.56
83183;BME280;73077;49.898;16.450;2023-11-18T01:19:49;97386.28;;;21.64;47.43
83183;BME280;73077;49.898;16.450;2023-11-18T01:22:15;97391.88;;;21.61;47.52
83183;BME280;73077;49.898;16.450;2023-11-18T01:24:41;97408.50;;;21.61;47.63
83183;BME280;73077;49.898;16.450;2023-11-18T01:27:06;97403.41;;;21.60;47.54
83183;BME280;73077;49.898;16.450;2023-11-18T01:29:35;97415.75;;;21.59;47.46
83183;BME280;73077;49.898;16.450;2023-11-18T01:32:02;97398.50;;;21.57;47.50
83183;BME280;73077;49.898;16.450;2023-11-18T01:34:35;97410.84;;;21.56;47.58
83183;BME280;73077;49.898;16.450;2023-11-18T01:37:01;97409.19;;;21.55;47.41
83183;BME280;73077;49.898;16.450;2023-11-18T01:39:28;97411.00;;;21.55;47.32
83183;BME280;73077;49.898;16.450;2023-11-18T01:41:56;97412.00;;;21.54;47.56
83183;BME280;73077;49.898;16.450;2023-11-18T01:44:25;97412.53;;;21.49;47.43
83183;BME280;73077;49.898;16.450;2023-11-18T01:46:57;97415.00;;;21.51;47.36
83183;BME280;73077;49.898;16.450;2023-11-18T01:49:23;97416.59;;;21.52;47.43
83183;BME280;73077;49.898;16.450;2023-11-18T01:51:52;97415.63;;;21.53;47.55
83183;BME280;73077;49.898;16.450;2023-11-18T01:54:19;97412.72;;;21.48;47.35
83183;BME280;73077;49.898;16.450;2023-11-18T01:56:49;97406.47;;;21.49;47.37
83183;BME280;73077;49.898;16.450;2023-11-18T01:59:15;97412.88;;;21.46;47.31
83183;BME280;73077;49.898;16.450;2023-11-18T02:01:49;97420.13;;;21.44;47.43
83183;BME280;73077;49.898;16.450;2023-11-18T02:04:15;97425.38;;;21.44;47.32
83183;BME280;73077;49.898;16.450;2023-11-18T02:06:42;97421.09;;;21.43;47.39
83183;BME280;73077;49.898;16.450;2023-11-18T02:09:11;97414.22;;;21.42;47.40
83183;BME280;73077;49.898;16.450;2023-11-18T02:11:42;97425.72;;;21.41;47.33
83183;BME280;73077;49.898;16.450;2023-11-18T02:14:13;97434.44;;;21.42;47.32
83183;BME280;73077;49.898;16.450;2023-11-18T02:16:42;97434.78;;;21.39;47.53
83183;BME280;73077;49.898;16.450;2023-11-18T02:19:19;97428.69;;;21.38;47.23
83183;BME280;73077;49.898;16.450;2023-11-18T02:21:47;97437.41;;;21.39;47.52
83183;BME280;73077;49.898;16.450;2023-11-18T02:24:30;97430.69;;;21.36;47.45
83183;BME280;73077;49.898;16.450;2023-11-18T02:26:58;97431.69;;;21.35;47.25
83183;BME280;73077;49.898;16.450;2023-11-18T02:29:25;97445.66;;;21.36;47.23
83183;BME280;73077;49.898;16.450;2023-11-18T02:31:52;97443.03;;;21.36;47.27
83183;BME280;73077;49.898;16.450;2023-11-18T02:34:25;97452.91;;;21.34;47.39
83183;BME280;73077;49.898;16.450;2023-11-18T02:36:56;97441.38;;;21.35;47.07
83183;BME280;73077;49.898;16.450;2023-11-18T02:39:30;97455.53;;;21.34;47.25
83183;BME280;73077;49.898;16.450;2023-11-18T02:42:01;97449.63;;;21.32;47.16
83183;BME280;73077;49.898;16.450;2023-11-18T02:44:29;97448.00;;;21.31;47.10
83183;BME280;73077;49.898;16.450;2023-11-18T02:46:55;97449.63;;;21.32;47.11
83183;BME280;73077;49.898;16.450;2023-11-18T02:49:23;97444.72;;;21.29;47.20
83183;BME280;73077;49.898;16.450;2023-11-18T02:51:49;97454.22;;;21.30;47.38
83183;BME280;73077;49.898;16.450;2023-11-18T02:54:15;97460.50;;;21.29;47.38
83183;BME280;73077;49.898;16.450;2023-11-18T02:56:41;97465.28;;;21.25;47.18
83183;BME280;73077;49.898;16.450;2023-11-18T02:59:07;97466.09;;;21.26;47.38
83183;BME280;73077;49.898;16.450;2023-11-18T03:01:33;97465.28;;;21.25;47.20
83183;BME280;73077;49.898;16.450;2023-11-18T03:04:01;97468.38;;;21.29;47.30
83183;BME280;73077;49.898;16.450;2023-11-18T03:06:28;97473.16;;;21.25;46.88
83183;BME280;73077;49.898;16.450;2023-11-18T03:08:53;97471.69;;;21.23;47.31
83183;BME280;73077;49.898;16.450;2023-11-18T03:11:20;97464.63;;;21.23;47.28
83183;BME280;73077;49.898;16.450;2023-11-18T03:13:45;97471.69;;;21.23;46.97
83183;BME280;73077;49.898;16.450;2023-11-18T03:16:14;97466.78;;;21.20;47.24
83183;BME280;73077;49.898;16.450;2023-11-18T03:18:40;97467.13;;;21.17;46.91
83183;BME280;73077;49.898;16.450;2023-11-18T03:21:15;97469.75;;;21.17;47.23
83183;BME280;73077;49.898;16.450;2023-11-18T03:23:41;97471.56;;;21.16;47.11
83183;BME280;73077;49.898;16.450;2023-11-18T03:26:08;97469.75;;;21.17;47.22
83183;BME280;73077;49.898;16.450;2023-11-18T03:28:36;97466.47;;;21.15;47.03
83183;BME280;73077;49.898;16.450;2023-11-18T03:31:05;97479.63;;;21.15;47.27
83183;BME280;73077;49.898;16.450;2023-11-18T03:33:32;97472.72;;;21.14;47.20
83183;BME280;73077;49.898;16.450;2023-11-18T03:35:58;97478.31;;;21.10;47.02
83183;BME280;73077;49.898;16.450;2023-11-18T03:38:25;97486.34;;;21.09;47.27
83183;BME280;73077;49.898;16.450;2023-11-18T03:40:53;97479.63;;;21.15;46.91
83183;BME280;73077;49.898;16.450;2023-11-18T03:43:18;97482.41;;;21.13;46.87
83183;BME280;73077;49.898;16.450;2023-11-18T03:45:45;97494.25;;;21.09;46.90
83183;BME280;73077;49.898;16.450;2023-11-18T03:48:11;97489.66;;;21.11;47.03
83183;BME280;73077;49.898;16.450;2023-11-18T03:50:40;97479.97;;;21.12;46.88
83183;BME280;73077;49.898;16.450;2023-11-18T03:53:06;97489.16;;;21.07;47.13
83183;BME280;73077;49.898;16.450;2023-11-18T03:55:32;97477.78;;;21.07;46.99
83183;BME280;73077;49.898;16.450;2023-11-18T03:57:59;97487.50;;;21.06;47.06
83183;BME280;73077;49.898;16.450;2023-11-18T04:00:26;97493.56;;;21.07;47.26
83183;BME280;73077;49.898;16.450;2023-11-18T04:02:55;97491.94;;;21.06;46.68
83183;BME280;73077;49.898;16.450;2023-11-18T04:05:22;97497.50;;;21.19;46.70
83183;BME280;73077;49.898;16.450;2023-11-18T04:07:49;97496.41;;;21.44;46.42
83183;BME280;73077;49.898;16.450;2023-11-18T04:10:15;97500.31;;;21.87;45.47
83183;BME280;73077;49.898;16.450;2023-11-18T04:12:43;97504.28;;;22.29;44.28
83183;BME280;73077;49.898;16.450;2023-11-18T04:15:13;97504.16;;;22.82;43.35
83183;BME280;73077;49.898;16.450;2023-11-18T04:17:40;97500.88;;;23.39;42.18
83183;BME280;73077;49.898;16.450;2023-11-18T04:20:07;97504.22;;;23.83;41.33
83183;BME280;73077;49.898;16.450;2023-11-18T04:22:40;97508.75;;;24.25;40.50
83183;BME280;73077;49.898;16.450;2023-11-18T04:25:08;97498.81;;;24.48;40.07
83183;BME280;73077;49.898;16.450;2023-11-18T04:27:36;97502.81;;;24.72;39.61
83183;BME280;73077;49.898;16.450;2023-11-18T04:30:02;97503.34;;;24.82;39.76
83183;BME280;73077;49.898;16.450;2023-11-18T04:32:28;97501.22;;;24.98;39.51
83183;BME280;73077;49.898;16.450;2023-11-18T04:34:57;97493.72;;;25.09;39.24
83183;BME280;73077;49.898;16.450;2023-11-18T04:37:23;97490.72;;;25.18;39.43
83183;BME280;73077;49.898;16.450;2023-11-18T04:39:50;97501.41;;;25.31;39.09
83183;BME280;73077;49.898;16.450;2023-11-18T04:42:15;97503.63;;;25.34;39.13
83183;BME280;73077;49.898;16.450;2023-11-18T04:44:42;97500.81;;;25.36;39.33
83183;BME280;73077;49.898;16.450;2023-11-18T04:47:07;97494.50;;;25.37;39.13
83183;BME280;73077;49.898;16.450;2023-11-18T04:49:33;97496.94;;;25.38;39.21
83183;BME280;73077;49.898;16.450;2023-11-18T04:51:59;97503.22;;;25.37;39.43
83183;BME280;73077;49.898;16.450;2023-11-18T04:54:24;97504.44;;;25.35;39.40
83183;BME280;73077;49.898;16.450;2023-11-18T04:56:50;97506.88;;;25.30;39.38
83183;BME280;73077;49.898;16.450;2023-11-18T04:59:16;97504.84;;;25.25;39.83
83183;BME280;73077;49.898;16.450;2023-11-18T05:01:43;97509.25;;;25.18;39.73
83183;BME280;73077;49.898;16.450;2023-11-18T05:04:09;97501.91;;;25.14;39.73
83183;BME280;73077;49.898;16.450;2023-11-18T05:06:35;97503.91;;;25.05;40.19
83183;BME280;73077;49.898;16.450;2023-11-18T05:09:00;97516.09;;;24.99;40.17
83183;BME280;73077;49.898;16.450;2023-11-18T05:11:26;97515.81;;;24.94;40.19
83183;BME280;73077;49.898;16.450;2023-11-18T05:13:52;97521.09;;;24.88;40.38
83183;BME280;73077;49.898;16.450;2023-11-18T05:16:19;97524.50;;;24.82;40.46
83183;BME280;73077;49.898;16.450;2023-11-18T05:18:44;97521.78;;;24.75;40.68
83183;BME280;73077;49.898;16.450;2023-11-18T05:21:10;97523.38;;;24.70;40.45
83183;BME280;73077;49.898;16.450;2023-11-18T05:23:37;97522.50;;;24.63;41.00
83183;BME280;73077;49.898;16.450;2023-11-18T05:26:03;97513.53;;;24.57;40.85
83183;BME280;73077;49.898;16.450;2023-11-18T05:28:31;97508.63;;;24.54;41.05
83183;BME280;73077;49.898;16.450;2023-11-18T05:30:57;97510.59;;;24.52;41.11
83183;BME280;73077;49.898;16.450;2023-11-18T05:33:30;97518.75;;;24.51;41.14
83183;BME280;73077;49.898;16.450;2023-11-18T05:35:57;97514.22;;;24.44;41.15
83183;BME280;73077;49.898;16.450;2023-11-18T05:38:23;97523.91;;;24.37;41.24
83183;BME280;73077;49.898;16.450;2023-11-18T05:40:53;97539.34;;;24.34;41.55
83183;BME280;73077;49.898;16.450;2023-11-18T05:43:31;97538.69;;;24.32;41.32
83183;BME280;73077;49.898;16.450;2023-11-18T05:46:06;97541.28;;;24.25;41.26
83183;BME280;73077;49.898;16.450;2023-11-18T05:48:47;97527.00;;;24.20;41.54
83183;BME280;73077;49.898;16.450;2023-11-18T05:51:14;97524.53;;;24.18;41.50
83183;BME280;73077;49.898;16.450;2023-11-18T05:53:40;97507.44;;;24.14;41.66
83183;BME280;73077;49.898;16.450;2023-11-18T05:56:10;97512.09;;;24.12;41.60
83183;BME280;73077;49.898;16.450;2023-11-18T05:58:36;97531.59;;;24.11;41.59
83183;BME280;73077;49.898;16.450;2023-11-18T06:01:02;97536.19;;;24.09;41.55
83183;BME280;73077;49.898;16.450;2023-11-18T06:03:28;97542.69;;;24.07;41.70
83183;BME280;73077;49.898;16.450;2023-11-18T06:05:54;97541.84;;;24.06;41.71
83183;BME280;73077;49.898;16.450;2023-11-18T06:08:21;97545.53;;;24.05;41.64
83183;BME280;73077;49.898;16.450;2023-11-18T06:10:50;97538.81;;;24.03;41.67
83183;BME280;73077;49.898;16.450;2023-11-18T06:13:22;97544.25;;;24.01;41.71
83183;BME280;73077;49.898;16.450;2023-11-18T06:15:50;97556.59;;;23.94;41.81
83183;BME280;73077;49.898;16.450;2023-11-18T06:18:18;97565.69;;;23.91;41.88
83183;BME280;73077;49.898;16.450;2023-11-18T06:20:44;97564.97;;;23.83;42.04
83183;BME280;73077;49.898;16.450;2023-11-18T06:23:10;97564.53;;;23.79;42.04
83183;BME280;73077;49.898;16.450;2023-11-18T06:25:35;97562.44;;;23.75;42.13
83183;BME280;73077;49.898;16.450;2023-11-18T06:28:01;97568.91;;;23.72;42.14
83183;BME280;73077;49.898;16.450;2023-11-18T06:30:27;97561.94;;;23.65;42.18
83183;BME280;73077;49.898;16.450;2023-11-18T06:32:53;97567.56;;;23.62;42.32
83183;BME280;73077;49.898;16.450;2023-11-18T06:35:19;97564.47;;;23.58;42.31
83183;BME280;73077;49.898;16.450;2023-11-18T06:37:47;97590.03;;;23.58;42.25
83183;BME280;73077;49.898;16.450;2023-11-18T06:40:13;97595.78;;;23.61;42.24
83183;BME280;73077;49.898;16.450;2023-11-18T06:42:42;97595.25;;;23.66;42.04
83183;BME280;73077;49.898;16.450;2023-11-18T06:45:08;97584.69;;;23.66;41.91
83183;BME280;73077;49.898;16.450;2023-11-18T06:47:35;97599.97;;;23.70;41.94
83183;BME280;73077;49.898;16.450;2023-11-18T06:50:04;97598.22;;;23.77;41.71
83183;BME280;73077;49.898;16.450;2023-11-18T06:52:30;97596.28;;;23.86;41.69
83183;BME280;73077;49.898;16.450;2023-11-18T06:54:57;97594.94;;;23.90;41.46
83183;BME280;73077;49.898;16.450;2023-11-18T06:57:24;97603.75;;;23.97;41.53
83183;BME280;73077;49.898;16.450;2023-11-18T06:59:50;97615.81;;;24.06;41.16
83183;BME280;73077;49.898;16.450;2023-11-18T07:02:16;97617.59;;;24.14;40.97
83183;BME280;73077;49.898;16.450;2023-11-18T07:04:41;97628.41;;;24.19;40.79
83183;BME280;73077;49.898;16.450;2023-11-18T07:07:07;97624.00;;;24.26;40.79
83183;BME280;73077;49.898;16.450;2023-11-18T07:09:34;97626.94;;;24.31;40.55
83183;BME280;73077;49.898;16.450;2023-11-18T07:12:02;97620.69;;;24.38;40.63
83183;BME280;73077;49.898;16.450;2023-11-18T07:14:29;97609.13;;;24.39;40.42
83183;BME280;73077;49.898;16.450;2023-11-18T07:16:56;97615.41;;;24.38;40.55
83183;BME280;73077;49.898;16.450;2023-11-18T07:19:22;97620.69;;;24.38;40.58
83183;BME280;73077;49.898;16.450;2023-11-18T07:21:49;97630.00;;;24.34;40.62
83183;BME280;73077;49.898;16.450;2023-11-18T07:24:15;97624.28;;;24.31;40.70
83183;BME280;73077;49.898;16.450;2023-11-18T07:26:40;97622.38;;;24.25;40.82
83183;BME280;73077;49.898;16.450;2023-11-18T07:29:06;97624.56;;;24.21;41.04
83183;BME280;73077;49.898;16.450;2023-11-18T07:31:35;97625.94;;;24.17;41.13
83183;BME280;73077;49.898;16.450;2023-11-18T07:34:03;97633.00;;;24.10;41.10
83183;BME280;73077;49.898;16.450;2023-11-18T07:36:29;97633.69;;;24.04;41.30
83183;BME280;73077;49.898;16.450;2023-11-18T07:38:54;97632.41;;;24.00;41.40
83183;BME280;73077;49.898;16.450;2023-11-18T07:41:21;97637.28;;;23.97;41.39
83183;BME280;73077;49.898;16.450;2023-11-18T07:43:52;97632.72;;;23.90;41.61
83183;BME280;73077;49.898;16.450;2023-11-18T07:46:22;97633.47;;;23.84;41.68
83183;BME280;73077;49.898;16.450;2023-11-18T07:48:52;97641.75;;;23.81;41.82
83183;BME280;73077;49.898;16.450;2023-11-18T07:51:19;97645.94;;;23.76;41.62
83183;BME280;73077;49.898;16.450;2023-11-18T07:53:48;97651.78;;;23.71;42.08
83183;BME280;73077;49.898;16.450;2023-11-18T07:56:14;97652.31;;;23.67;42.07
83183;BME280;73077;49.898;16.450;2023-11-18T07:58:42;97648.56;;;23.47;42.17
83183;BME280;73077;49.898;16.450;2023-11-18T08:01:14;97659.13;;;23.47;42.08
83183;BME280;73077;49.898;16.450;2023-11-18T08:03:42;97657.94;;;23.49;42.16
83183;BME280;73077;49.898;16.450;2023-11-18T08:06:08;97663.50;;;23.69;41.96
83183;BME280;73077;49.898;16.450;2023-11-18T08:08:34;97676.53;;;23.85;41.69
83183;BME280;73077;49.898;16.450;2023-11-18T08:11:06;97665.66;;;23.94;41.34
83183;BME280;73077;49.898;16.450;2023-11-18T08:13:32;97670.06;;;24.02;41.27
83183;BME280;73077;49.898;16.450;2023-11-18T08:15:58;97665.31;;;23.98;41.33
83183;BME280;73077;49.898;16.450;2023-11-18T08:18:24;97671.13;;;24.08;41.16
83183;BME280;73077;49.898;16.450;2023-11-18T08:20:50;97672.88;;;24.15;41.13
83183;BME280;73077;49.898;16.450;2023-11-18T08:23:16;97677.78;;;24.18;40.92
83183;BME280;73077;49.898;16.450;2023-11-18T08:25:43;97671.25;;;24.14;41.03
83183;BME280;73077;49.898;16.450;2023-11-18T08:28:09;97675.59;;;24.07;41.14
83183;BME280;73077;49.898;16.450;2023-11-18T08:30:38;97677.41;;;24.07;40.96
83183;BME280;73077;49.898;16.450;2023-11-18T08:33:05;97681.44;;;24.03;41.23
83183;BME280;73077;49.898;16.450;2023-11-18T08:35:34;97686.00;;;23.94;41.28
83183;BME280;73077;49.898;16.450;2023-11-18T08:38:00;97692.03;;;23.88;41.28
83183;BME280;73077;49.898;16.450;2023-11-18T08:40:26;97705.38;;;23.86;41.36
83183;BME280;73077;49.898;16.450;2023-11-18T08:42:53;97698.38;;;23.79;41.51
83183;BME280;73077;49.898;16.450;2023-11-18T08:45:27;97691.81;;;23.75;41.72
83183;BME280;73077;49.898;16.450;2023-11-18T08:47:55;97699.13;;;23.73;41.68
83183;BME280;73077;49.898;16.450;2023-11-18T08:50:21;97692.28;;;23.64;41.79
83183;BME280;73077;49.898;16.450;2023-11-18T08:52:50;97685.06;;;23.58;41.84
83183;BME280;73077;49.898;16.450;2023-11-18T08:55:31;97684.44;;;23.56;41.91
83183;BME280;73077;49.898;16.450;2023-11-18T08:58:09;97686.97;;;23.49;41.91
83183;BME280;73077;49.898;16.450;2023-11-18T09:00:49;97690.63;;;23.48;42.13
83183;BME280;73077;49.898;16.450;2023-11-18T09:03:26;97702.53;;;23.44;42.02
83183;BME280;73077;49.898;16.450;2023-11-18T09:06:02;97709.34;;;23.39;42.11
83183;BME280;73077;49.898;16.450;2023-11-18T09:08:36;97716.63;;;23.36;42.18
83183;BME280;73077;49.898;16.450;2023-11-18T09:11:02;97714.09;;;23.43;42.23
83183;BME280;73077;49.898;16.450;2023-11-18T09:13:31;97722.59;;;23.30;42.14
83183;BME280;73077;49.898;16.450;2023-11-18T09:15:58;97731.00;;;23.34;42.27
83183;BME280;73077;49.898;16.450;2023-11-18T09:18:29;97728.47;;;23.41;41.97
83183;BME280;73077;49.898;16.450;2023-11-18T09:20:56;97733.31;;;23.52;41.90
83183;BME280;73077;49.898;16.450;2023-11-18T09:23:25;97731.41;;;23.60;41.79
83183;BME280;73077;49.898;16.450;2023-11-18T09:25:53;97742.06;;;23.67;41.50
83183;BME280;73077;49.898;16.450;2023-11-18T09:28:20;97739.81;;;23.78;41.08
83183;BME280;73077;49.898;16.450;2023-11-18T09:30:46;97735.91;;;23.89;41.00
83183;BME280;73077;49.898;16.450;2023-11-18T09:33:20;97739.09;;;23.99;40.78
83183;BME280;73077;49.898;16.450;2023-11-18T09:36:04;97761.47;;;24.11;40.47
83183;BME280;73077;49.898;16.450;2023-11-18T09:38:35;97760.06;;;24.15;40.32
83183;BME280;73077;49.898;16.450;2023-11-18T09:41:02;97759.53;;;24.20;40.46
83183;BME280;73077;49.898;16.450;2023-11-18T09:43:35;97768.91;;;24.22;40.57
83183;BME280;73077;49.898;16.450;2023-11-18T09:46:28;97768.72;;;24.24;40.42
83183;BME280;73077;49.898;16.450;2023-11-18T09:51:41;97766.66;;;24.19;40.41
83183;BME280;73077;49.898;16.450;2023-11-18T09:54:36;97767.53;;;24.12;40.73
83183;BME280;73077;49.898;16.450;2023-11-18T09:57:17;97769.72;;;24.08;40.78
83183;BME280;73077;49.898;16.450;2023-11-18T10:00:06;97769.56;;;24.10;40.92
83183;BME280;73077;49.898;16.450;2023-11-18T10:02:48;97763.50;;;24.01;40.99
83183;BME280;73077;49.898;16.450;2023-11-18T10:05:17;97767.78;;;24.02;40.71
83183;BME280;73077;49.898;16.450;2023-11-18T10:07:50;97771.78;;;23.98;41.04
83183;BME280;73077;49.898;16.450;2023-11-18T10:10:17;97764.41;;;23.93;41.09
83183;BME280;73077;49.898;16.450;2023-11-18T10:12:51;97758.47;;;23.91;41.30
83183;BME280;73077;49.898;16.450;2023-11-18T10:15:21;97766.97;;;23.87;41.31
83183;BME280;73077;49.898;16.450;2023-11-18T10:17:51;97768.50;;;23.81;41.31
83183;BME280;73077;49.898;16.450;2023-11-18T10:20:53;97765.75;;;23.75;41.53
83183;BME280;73077;49.898;16.450;2023-11-18T10:23:25;97761.19;;;23.69;41.68
83183;BME280;73077;49.898;16.450;2023-11-18T10:25:58;97772.13;;;23.66;41.73
83183;BME280;73077;49.898;16.450;2023-11-18T10:28:35;97771.19;;;23.59;41.79
83183;BME280;73077;49.898;16.450;2023-11-18T10:31:07;97778.38;;;23.50;42.04
83183;BME280;73077;49.898;16.450;2023-11-18T10:33:39;97781.56;;;23.46;42.07
83183;BME280;73077;49.898;16.450;2023-11-18T10:36:22;97780.63;;;23.39;42.26
83183;BME280;73077;49.898;16.450;2023-11-18T10:38:50;97781.75;;;23.36;42.41
83183;BME280;73077;49.898;16.450;2023-11-18T10:41:20;97782.94;;;23.33;42.38
83183;BME280;73077;49.898;16.450;2023-11-18T10:44:05;97775.88;;;23.26;42.46
83183;BME280;73077;49.898;16.450;2023-11-18T10:46:50;97771.78;;;23.23;42.57
83183;BME280;73077;49.898;16.450;2023-11-18T10:49:19;97775.44;;;23.22;42.56
83183;BME280;73077;49.898;16.450;2023-11-18T10:51:50;97772.97;;;23.21;42.63
83183;BME280;73077;49.898;16.450;2023-11-18T10:54:18;97770.41;;;23.13;42.65
83183;BME280;73077;49.898;16.450;2023-11-18T10:56:49;97784.13;;;23.08;42.87
83183;BME280;73077;49.898;16.450;2023-11-18T10:59:15;97795.31;;;23.10;42.71
83183;BME280;73077;49.898;16.450;2023-11-18T11:01:43;97787.09;;;23.05;42.78
83183;BME280;73077;49.898;16.450;2023-11-18T11:04:15;97792.25;;;22.99;42.93
83183;BME280;73077;49.898;16.450;2023-11-18T11:06:48;97794.06;;;22.98;43.01
83183;BME280;73077;49.898;16.450;2023-11-18T11:09:25;97787.50;;;22.94;43.09
83183;BME280;73077;49.898;16.450;2023-11-18T11:12:08;97788.38;;;22.87;43.22
83183;BME280;73077;49.898;16.450;2023-11-18T11:14:48;97793.97;;;22.84;43.11
83183;BME280;73077;49.898;16.450;2023-11-18T11:17:17;97791.34;;;22.84;43.19
83183;BME280;73077;49.898;16.450;2023-11-18T11:20:14;97789.88;;;22.81;43.27
83183;BME280;73077;49.898;16.450;2023-11-18T11:26:07;97796.88;;;22.97;42.90
83183;BME280;73077;49.898;16.450;2023-11-18T11:28:42;97790.19;;;23.09;42.44
83183;BME280;73077;49.898;16.450;2023-11-18T11:31:20;97796.56;;;23.22;42.24
83183;BME280;73077;49.898;16.450;2023-11-18T11:34:01;97790.84;;;23.33;42.04
83183;BME280;73077;49.898;16.450;2023-11-18T11:36:39;97798.66;;;23.50;41.75
83183;BME280;73077;49.898;16.450;2023-11-18T11:39:13;97790.66;;;23.58;41.56
83183;BME280;73077;49.898;16.450;2023-11-18T11:41:44;97792.88;;;23.69;41.62
83183;BME280;73077;49.898;16.450;2023-11-18T11:44:15;97796.56;;;23.82;41.22
83183;BME280;73077;49.898;16.450;2023-11-18T11:46:42;97805.31;;;23.98;41.06
83183;BME280;73077;49.898;16.450;2023-11-18T11:49:10;97810.53;;;24.06;40.81
83183;BME280;73077;49.898;16.450;2023-11-18T11:52:06;97800.25;;;24.11;40.80
83183;BME280;73077;49.898;16.450;2023-11-18T11:54:43;97793.31;;;24.10;40.84
83183;BME280;73077;49.898;16.450;2023-11-18T11:57:14;97782.94;;;24.08;40.81
83183;BME280;73077;49.898;16.450;2023-11-18T12:02:14;97796.19;;;24.00;41.07
83183;BME280;73077;49.898;16.450;2023-11-18T12:04:56;97783.91;;;23.92;41.18
83183;BME280;73077;49.898;16.450;2023-11-18T12:07:27;97783.28;;;23.90;41.49
83183;BME280;73077;49.898;16.450;2023-11-18T12:09:57;97785.63;;;23.85;41.26
83183;BME280;73077;49.898;16.450;2023-11-18T12:12:25;97782.88;;;23.79;41.51
83183;BME280;73077;49.898;16.450;2023-11-18T12:15:01;97775.13;;;23.77;41.53
83183;BME280;73077;49.898;16.450;2023-11-18T12:20:42;97781.69;;;23.67;41.83
83183;BME280;73077;49.898;16.450;2023-11-18T12:23:10;97778.56;;;23.63;41.76
83183;BME280;73077;49.898;16.450;2023-11-18T12:25:45;97787.03;;;23.59;41.92
83183;BME280;73077;49.898;16.450;2023-11-18T12:28:21;97782.75;;;23.58;41.94
83183;BME280;73077;49.898;16.450;2023-11-18T12:30:54;97777.19;;;23.53;42.00
83183;BME280;73077;49.898;16.450;2023-11-18T12:34:01;97778.91;;;23.46;42.28
83183;BME280;73077;49.898;16.450;2023-11-18T12:36:59;97780.63;;;23.39;42.20
83183;BME280;73077;49.898;16.450;2023-11-18T12:47:55;97787.69;;;23.15;42.40
83183;BME280;73077;49.898;16.450;2023-11-18T12:50:22;97786.41;;;23.11;42.53
83183;BME280;73077;49.898;16.450;2023-11-18T12:52:54;97793.56;;;23.03;42.71
83183;BME280;73077;49.898;16.450;2023-11-18T12:55:20;97798.47;;;23.06;42.56
83183;BME280;73077;49.898;16.450;2023-11-18T12:57:51;97801.13;;;23.06;42.65
83183;BME280;73077;49.898;16.450;2023-11-18T13:00:19;97803.75;;;23.06;42.55
83183;BME280;73077;49.898;16.450;2023-11-18T13:02:56;97803.28;;;23.02;42.71
83183;BME280;73077;49.898;16.450;2023-11-18T13:05:23;97802.44;;;23.02;42.58
83183;BME280;73077;49.898;16.450;2023-11-18T13:07:56;97803.28;;;23.02;42.54
83183;BME280;73077;49.898;16.450;2023-11-18T13:10:23;97810.72;;;22.99;42.85
83183;BME280;73077;49.898;16.450;2023-11-18T13:12:52;97803.91;;;23.04;42.55
83183;BME280;73077;49.898;16.450;2023-11-18T13:15:18;97801.56;;;23.09;42.47
83183;BME280;73077;49.898;16.450;2023-11-18T13:18:01;97808.72;;;23.23;42.40
83183;BME280;73077;49.898;16.450;2023-11-18T13:20:28;97804.06;;;23.33;42.07
83183;BME280;73077;49.898;16.450;2023-11-18T13:22:56;97818.16;;;23.49;41.71